Time;durP1;ratioP1;P1;durP2;ratioP2;P2;SDS_P1;SDS_P2;PMS_P1;PMS_P2;Temp;Humidity;BMP_temperature;BMP_pressure;BME280_temperature;BME280_humidity;BME280_pressure;Samples;Min_cycle;Max_cycle;Signal;HPM_P1;HPM_P2
2023/08/11 00:00:00;;;;;;;1.98;1.05;;;;;;;14.82;59.89;100452.53;10483235;28;20048;-60
2023/08/11 00:05:12;;;;;;;2.05;1.38;;;;;;;14.72;60.15;100449.69;10482347;28;20421;-60
2023/08/11 00:10:14;;;;;;;3.03;0.90;;;;;;;14.72;60.23;100456.72;10464579;28;20532;-60
2023/08/11 00:15:18;;;;;;;10.70;1.42;;;;;;;14.65;60.24;100455.47;10482119;28;20401;-60
2023/08/11 00:20:20;;;;;;;2.38;1.27;;;;;;;14.60;60.65;100466.31;10481917;28;20563;-60
2023/08/11 00:25:22;;;;;;;1.60;1.20;;;;;;;14.53;60.43;100463.25;10481715;28;20143;-60
2023/08/11 00:30:25;;;;;;;2.13;1.20;;;;;;;14.54;60.44;100462.31;10463833;28;20053;-60
2023/08/11 00:35:28;;;;;;;2.20;1.25;;;;;;;14.41;60.58;100464.03;10462979;28;20055;-59
2023/08/11 00:40:30;;;;;;;2.13;1.17;;;;;;;14.34;60.90;100462.78;10481643;28;20051;-58
2023/08/11 00:45:33;;;;;;;2.15;1.10;;;;;;;14.38;60.83;100461.63;10480501;28;20143;-58
2023/08/11 00:50:36;;;;;;;2.58;0.90;;;;;;;14.40;60.55;100465.00;10463068;28;20097;-58
2023/08/11 00:55:38;;;;;;;2.55;1.60;;;;;;;14.36;60.66;100463.53;10481145;28;20041;-59
2023/08/11 01:00:41;;;;;;;3.85;1.55;;;;;;;14.29;60.58;100456.97;10429314;28;20110;-58
2023/08/11 01:05:52;;;;;;;2.67;1.35;;;;;;;14.21;61.30;100453.16;10480765;28;20526;-60
2023/08/11 01:11:16;;;;;;;2.47;1.10;;;;;;;14.16;61.89;100450.84;10495423;28;20053;-59
2023/08/11 01:16:22;;;;;;;6.75;1.73;;;;;;;14.07;61.43;100442.69;10480015;28;20084;-59
2023/08/11 01:21:25;;;;;;;6.07;1.77;;;;;;;14.11;61.20;100437.16;10461718;28;20635;-59
2023/08/11 01:26:27;;;;;;;3.00;1.30;;;;;;;14.10;61.29;100432.84;10479760;28;20128;-59
2023/08/11 01:31:30;;;;;;;3.28;1.20;;;;;;;13.85;61.37;100431.91;10479664;28;20404;-60
2023/08/11 01:36:32;;;;;;;1.75;1.20;;;;;;;13.67;61.66;100437.44;10477677;28;20080;-59
2023/08/11 01:41:34;;;;;;;1.52;1.25;;;;;;;13.83;61.83;100439.91;10478895;28;20272;-59
2023/08/11 01:46:37;;;;;;;3.05;1.25;;;;;;;13.81;61.61;100435.69;10460564;28;20055;-59
2023/08/11 01:51:40;;;;;;;3.40;1.10;;;;;;;13.79;61.68;100438.41;10476430;28;20137;-59
2023/08/11 01:56:44;;;;;;;3.00;1.50;;;;;;;13.81;61.72;100439.16;10477406;28;20095;-60
2023/08/11 02:01:46;;;;;;;2.08;1.33;;;;;;;13.81;61.64;100447.06;10460063;28;20041;-59
2023/08/11 02:06:49;;;;;;;2.17;1.00;;;;;;;13.78;61.67;100429.69;10459770;28;20037;-59
2023/08/11 02:11:51;;;;;;;1.63;1.10;;;;;;;13.75;61.72;100444.81;10459779;28;20052;-59
2023/08/11 02:16:53;;;;;;;1.95;1.20;;;;;;;13.72;61.52;100442.38;10492593;28;20311;-60
2023/08/11 02:21:55;;;;;;;2.55;1.17;;;;;;;13.65;61.72;100438.47;10458415;28;20598;-59
2023/08/11 02:26:56;;;;;;;3.97;1.35;;;;;;;13.60;61.98;100443.16;10477661;28;20480;-59
2023/08/11 02:31:58;;;;;;;3.53;1.27;;;;;;;13.57;62.05;100428.47;10492256;28;20032;-59
2023/08/11 02:37:01;;;;;;;2.90;1.10;;;;;;;13.52;62.13;100429.66;10458629;28;20044;-60
2023/08/11 02:42:03;;;;;;;1.60;1.20;;;;;;;13.46;62.00;100432.69;10476647;28;20080;-59
2023/08/11 02:47:05;;;;;;;2.20;1.10;;;;;;;13.46;62.21;100440.56;10458261;28;20542;-59
2023/08/11 02:52:07;;;;;;;2.50;1.10;;;;;;;13.44;61.99;100429.31;10476636;28;20053;-60
2023/08/11 02:57:09;;;;;;;1.77;1.20;;;;;;;13.30;62.33;100430.16;10458432;28;20800;-59
2023/08/11 03:02:11;;;;;;;1.92;1.10;;;;;;;13.23;62.55;100425.41;10475868;28;20048;-60
2023/08/11 03:07:14;;;;;;;1.85;1.10;;;;;;;13.05;62.53;100429.19;10475725;28;20048;-60
2023/08/11 03:12:16;;;;;;;1.45;1.00;;;;;;;12.74;62.97;100436.28;10457557;28;20474;-60
2023/08/11 03:17:18;;;;;;;3.15;1.30;;;;;;;12.73;63.10;100429.38;10476608;28;20492;-59
2023/08/11 03:22:20;;;;;;;3.95;1.23;;;;;;;12.94;62.96;100433.28;10457021;28;20060;-59
2023/08/11 03:27:23;;;;;;;1.50;1.20;;;;;;;13.06;62.65;100430.84;10457422;28;20141;-59
2023/08/11 03:32:26;;;;;;;2.42;1.23;;;;;;;13.04;62.58;100432.72;10489788;28;20141;-60
2023/08/11 03:37:29;;;;;;;1.25;1.08;;;;;;;12.79;62.67;100429.00;10473705;28;20052;-59
2023/08/11 03:42:32;;;;;;;1.88;1.20;;;;;;;12.67;63.28;100429.75;10456765;28;20068;-59
2023/08/11 03:47:34;;;;;;;4.32;1.42;;;;;;;12.73;62.97;100436.38;10475479;28;20501;-59
2023/08/11 03:52:38;;;;;;;2.55;1.40;;;;;;;12.83;62.97;100434.88;10457023;28;20080;-59
2023/08/11 03:57:40;;;;;;;2.03;1.30;;;;;;;12.77;63.25;100440.50;10473471;28;20390;-59
2023/08/11 04:02:45;;;;;;;5.00;1.42;;;;;;;12.71;63.02;100438.25;10441608;28;20044;-59
2023/08/11 04:07:50;;;;;;;3.58;1.00;;;;;;;12.64;63.42;100440.41;10489611;28;20403;-59
2023/08/11 04:12:52;;;;;;;1.55;1.10;;;;;;;12.83;63.24;100429.63;10474716;28;20055;-59
2023/08/11 04:17:54;;;;;;;7.68;2.45;;;;;;;13.01;62.91;100431.13;10472937;28;20047;-59
2023/08/11 04:22:57;;;;;;;1.83;1.40;;;;;;;13.08;62.62;100431.59;10480497;28;20522;-59
2023/08/11 04:28:01;;;;;;;1.95;1.23;;;;;;;12.93;62.08;100431.63;10497810;28;21187;-59
2023/08/11 04:33:03;;;;;;;4.72;1.40;;;;;;;12.78;62.87;100439.59;10463230;28;20047;-59
2023/08/11 04:38:09;;;;;;;2.00;1.10;;;;;;;12.90;62.62;100444.91;10447391;28;20048;-59
2023/08/11 04:43:13;;;;;;;7.55;1.48;;;;;;;13.22;62.60;100447.34;10462839;28;20106;-58
2023/08/11 04:48:17;;;;;;;2.17;1.17;;;;;;;13.86;62.04;100447.56;10463455;28;20051;-59
2023/08/11 04:53:24;;;;;;;11.48;1.65;;;;;;;16.14;58.68;100442.06;10463062;28;20048;-60
2023/08/11 04:58:26;;;;;;;9.63;2.25;;;;;;;18.24;54.71;100427.94;10462122;28;20049;-59
2023/08/11 05:03:29;;;;;;;5.97;1.50;;;;;;;19.89;51.12;100427.53;10462654;28;20192;-60
2023/08/11 05:08:32;;;;;;;3.65;1.52;;;;;;;21.07;49.19;100417.25;10479860;28;20052;-59
2023/08/11 05:13:35;;;;;;;3.40;1.17;;;;;;;22.03;47.15;100420.22;10480396;28;20043;-60
2023/08/11 05:18:37;;;;;;;4.30;1.20;;;;;;;21.53;46.48;100424.34;10480225;28;20466;-59
2023/08/11 05:23:45;;;;;;;2.90;1.10;;;;;;;19.96;47.92;100434.81;10479577;28;20067;-60
2023/08/11 05:28:47;;;;;;;1.45;1.10;;;;;;;18.19;50.62;100444.19;10480053;28;20084;-60
2023/08/11 05:33:49;;;;;;;1.20;0.95;;;;;;;17.46;52.05;100446.69;10479855;28;20044;-60
2023/08/11 05:38:51;;;;;;;2.92;1.50;;;;;;;16.96;53.04;100457.72;10479168;28;20052;-59
2023/08/11 05:43:53;;;;;;;6.00;1.63;;;;;;;16.68;53.60;100453.75;10478753;28;20360;-60
2023/08/11 05:48:55;;;;;;;1.63;1.02;;;;;;;16.62;53.90;100454.22;10478646;28;20143;-59
2023/08/11 05:53:57;;;;;;;10.07;1.85;;;;;;;16.54;54.63;100451.31;10478489;28;20049;-59
2023/08/11 05:59:00;;;;;;;1.95;1.10;;;;;;;16.56;54.69;100444.13;10476744;28;20565;-59
2023/08/11 06:04:03;;;;;;;2.60;1.35;;;;;;;16.61;54.31;100451.69;10478562;28;20036;-60
2023/08/11 06:09:06;;;;;;;2.33;1.30;;;;;;;16.60;54.72;100461.41;10477909;28;20553;-60
2023/08/11 06:14:08;;;;;;;1.92;1.20;;;;;;;16.48;55.23;100450.94;10477787;28;20035;-61
2023/08/11 06:19:10;;;;;;;2.20;1.40;;;;;;;16.41;55.63;100457.59;10476399;28;20140;-59
2023/08/11 06:24:13;;;;;;;1.75;1.10;;;;;;;16.54;55.59;100459.25;10458498;28;20072;-60
2023/08/11 06:29:15;;;;;;;2.70;1.40;;;;;;;16.72;55.35;100460.47;10477030;28;20055;-61
2023/08/11 06:34:18;;;;;;;2.72;1.45;;;;;;;16.66;55.08;100457.44;10458735;28;20492;-60
2023/08/11 06:39:21;;;;;;;4.30;1.20;;;;;;;16.80;55.04;100462.50;10477023;28;20106;-59
2023/08/11 06:44:23;;;;;;;7.38;1.55;;;;;;;16.96;54.99;100463.00;10475908;28;20055;-60
2023/08/11 06:49:25;;;;;;;5.22;1.30;;;;;;;17.03;54.30;100462.44;10476908;28;20508;-60
2023/08/11 06:54:27;;;;;;;3.28;1.80;;;;;;;17.10;54.21;100475.16;10491904;28;20397;-60
2023/08/11 06:59:29;;;;;;;1.95;1.10;;;;;;;17.07;54.50;100464.81;10457743;28;20386;-60
2023/08/11 07:04:31;;;;;;;2.40;1.13;;;;;;;17.29;53.87;100463.00;10475799;28;20041;-59
2023/08/11 07:09:34;;;;;;;5.05;1.75;;;;;;;17.46;54.04;100461.72;10458436;28;20056;-59
2023/08/11 07:14:35;;;;;;;2.17;1.20;;;;;;;17.56;53.33;100471.44;10476069;28;20460;-60
2023/08/11 07:19:37;;;;;;;3.53;1.65;;;;;;;17.50;53.27;100461.34;10476104;28;20599;-59
2023/08/11 07:24:39;;;;;;;2.65;1.45;;;;;;;17.31;53.39;100462.88;10475426;28;20056;-59
2023/08/11 07:29:41;;;;;;;2.80;1.25;;;;;;;17.51;53.49;100459.53;10473600;28;20048;-59
2023/08/11 07:34:44;;;;;;;2.15;1.10;;;;;;;17.52;53.95;100458.56;10475617;28;20163;-59
2023/08/11 07:39:46;;;;;;;6.85;1.65;;;;;;;18.04;53.70;100463.09;10457054;28;20131;-60
2023/08/11 07:44:48;;;;;;;2.60;1.20;;;;;;;19.44;51.77;100458.97;10474969;28;20053;-59
2023/08/11 07:49:50;;;;;;;1.90;1.05;;;;;;;20.63;49.68;100456.03;10475689;28;20072;-60
2023/08/11 07:54:52;;;;;;;3.05;1.63;;;;;;;21.65;47.72;100447.09;10476640;28;20045;-60
2023/08/11 07:59:54;;;;;;;1.80;1.10;;;;;;;22.58;45.91;100445.66;10465450;28;20047;-60
2023/08/11 08:04:56;;;;;;;3.13;1.52;;;;;;;23.46;44.96;100441.84;10482696;28;20550;-60
2023/08/11 08:10:14;;;;;;;2.30;1.30;;;;;;;24.22;43.50;100430.00;10482406;28;20052;-60
2023/08/11 08:15:17;;;;;;;2.47;1.35;;;;;;;24.33;42.63;100431.47;10482749;28;20060;-59
2023/08/11 08:20:19;;;;;;;2.28;1.30;;;;;;;24.40;42.47;100426.31;10482790;28;20550;-59
2023/08/11 08:25:21;;;;;;;2.80;1.10;;;;;;;24.41;41.66;100430.66;10481911;28;20233;-59
2023/08/11 08:30:23;;;;;;;3.33;1.15;;;;;;;24.48;41.46;100421.78;10463940;28;20128;-59
2023/08/11 08:35:25;;;;;;;2.55;1.30;;;;;;;24.76;40.92;100420.44;10463746;28;20126;-58
2023/08/11 08:40:28;;;;;;;2.22;1.10;;;;;;;25.19;40.49;100413.75;10481592;28;20044;-59
2023/08/11 08:45:35;;;;;;;1.75;0.90;;;;;;;25.84;38.41;100403.53;10462966;28;20139;-60
2023/08/11 08:50:37;;;;;;;2.83;1.40;;;;;;;25.73;39.25;100402.09;10480891;28;20036;-59
2023/08/11 08:55:40;;;;;;;2.25;1.10;;;;;;;25.17;39.17;100402.38;10481157;28;20041;-58
2023/08/11 09:00:43;;;;;;;2.78;1.30;;;;;;;24.76;39.96;100401.69;10480727;28;20044;-59
2023/08/11 09:05:45;;;;;;;2.40;1.20;;;;;;;25.48;39.19;100403.28;10480317;28;20511;-58
2023/08/11 09:10:47;;;;;;;1.67;1.10;;;;;;;26.29;38.72;100389.31;10462887;28;20045;-59
2023/08/11 09:15:49;;;;;;;1.65;1.00;;;;;;;26.39;38.17;100387.19;10479364;28;20072;-58
2023/08/11 09:20:52;;;;;;;2.17;1.08;;;;;;;26.47;38.37;100381.75;10494923;28;20060;-59
2023/08/11 09:25:55;;;;;;;2.20;1.30;;;;;;;26.34;37.70;100378.88;10480084;28;20055;-59
2023/08/11 09:30:57;;;;;;;2.33;1.20;;;;;;;26.35;37.96;100377.84;10479515;28;20142;-59
2023/08/11 09:35:59;;;;;;;1.85;1.30;;;;;;;26.32;38.10;100365.63;10479304;28;20504;-59
2023/08/11 09:41:04;;;;;;;4.47;1.70;;;;;;;26.91;37.55;100357.66;10460959;28;20036;-59
2023/08/11 09:46:06;;;;;;;2.15;1.17;;;;;;;26.78;37.33;100365.53;10479078;28;20076;-59
2023/08/11 09:51:10;;;;;;;4.00;1.13;;;;;;;27.46;37.08;100371.38;10478136;28;20265;-59
2023/08/11 09:56:15;;;;;;;1.95;1.10;;;;;;;27.32;36.94;100367.69;10478450;28;20144;-59
2023/08/11 10:01:17;;;;;;;1.92;1.00;;;;;;;27.44;36.80;100360.00;10475801;28;20048;-59
2023/08/11 10:06:27;;;;;;;2.85;1.10;;;;;;;27.89;35.98;100365.03;10478157;28;20078;-60
2023/08/11 10:11:33;;;;;;;2.65;1.27;;;;;;;28.32;36.39;100355.06;10477830;28;20052;-59
2023/08/11 10:16:36;;;;;;;2.67;1.20;;;;;;;28.41;36.01;100351.22;10477379;28;20153;-60
2023/08/11 10:21:39;;;;;;;3.65;1.08;;;;;;;28.45;36.62;100352.47;10476904;28;20917;-59
2023/08/11 10:26:42;;;;;;;2.60;1.38;;;;;;;28.56;36.35;100343.88;10477268;28;20500;-59
2023/08/11 10:31:56;;;;;;;2.92;1.48;;;;;;;28.52;35.33;100349.84;10492823;28;20045;-59
2023/08/11 10:36:58;;;;;;;2.08;1.10;;;;;;;28.14;36.04;100339.41;10441400;28;20068;-60
2023/08/11 10:42:02;;;;;;;1.80;1.17;;;;;;;28.10;35.29;100337.28;10477004;28;20132;-59
2023/08/11 10:47:05;;;;;;;3.25;1.55;;;;;;;28.49;35.18;100340.28;10477807;28;20068;-59
2023/08/11 10:52:07;;;;;;;1.70;1.10;;;;;;;28.20;35.55;100329.69;10473583;28;20032;-60
2023/08/11 10:57:11;;;;;;;1.55;1.05;;;;;;;27.80;35.68;100325.88;10476943;28;20051;-58
2023/08/11 11:02:14;;;;;;;1.80;0.98;;;;;;;27.82;35.96;100322.97;10475972;28;20040;-59
2023/08/11 11:07:16;;;;;;;1.50;1.10;;;;;;;27.97;35.86;100311.13;10457856;28;20072;-59
2023/08/11 11:12:19;;;;;;;2.63;1.38;;;;;;;27.97;36.01;100297.66;10476223;28;20462;-59
2023/08/11 11:17:21;;;;;;;1.75;1.00;;;;;;;28.08;36.06;100294.47;10476110;28;20577;-59
2023/08/11 11:22:23;;;;;;;2.58;1.40;;;;;;;27.91;36.16;100289.56;10457407;28;20440;-59
2023/08/11 11:27:25;;;;;;;2.63;1.08;;;;;;;27.63;35.44;100291.38;10476235;28;20583;-59
2023/08/11 11:32:27;;;;;;;2.00;1.05;;;;;;;27.78;35.56;100294.84;10488342;28;20049;-59
2023/08/11 11:37:30;;;;;;;2.30;1.20;;;;;;;28.07;34.87;100286.59;10471254;28;20044;-60
2023/08/11 11:42:34;;;;;;;2.65;1.30;;;;;;;28.08;35.74;100275.63;10489297;28;20415;-58
2023/08/11 11:47:36;;;;;;;1.85;1.10;;;;;;;28.13;35.36;100281.28;10489040;28;20052;-59
2023/08/11 11:52:42;;;;;;;1.90;1.20;;;;;;;28.40;35.28;100273.41;10470455;28;20276;-59
2023/08/11 11:57:44;;;;;;;1.98;1.02;;;;;;;28.64;34.90;100284.50;10489037;28;20178;-59
2023/08/11 12:02:47;;;;;;;2.72;1.10;;;;;;;28.92;34.62;100274.50;10488498;28;20052;-59
2023/08/11 12:07:49;;;;;;;6.03;1.42;;;;;;;28.74;34.36;100270.66;10486860;28;20102;-59
2023/08/11 12:12:58;;;;;;;2.25;1.10;;;;;;;28.63;32.68;100263.97;10488364;28;20048;-59
2023/08/11 12:18:03;;;;;;;3.15;1.10;;;;;;;28.52;34.23;100264.56;10488484;28;20150;-59
2023/08/11 12:23:05;;;;;;;2.78;1.05;;;;;;;28.71;34.53;100271.03;10489045;28;20131;-59
2023/08/11 12:28:07;;;;;;;3.10;1.55;;;;;;;28.66;34.08;100254.69;10488693;28;20464;-59
2023/08/11 12:33:09;;;;;;;1.73;1.10;;;;;;;28.65;34.39;100256.53;10503205;28;20582;-59
2023/08/11 12:38:14;;;;;;;1.70;1.10;;;;;;;28.89;34.50;100250.66;10488198;28;20413;-59
2023/08/11 12:43:16;;;;;;;3.15;1.55;;;;;;;29.01;33.26;100251.72;10464202;28;20416;-59
2023/08/11 12:48:19;;;;;;;1.75;1.08;;;;;;;29.04;33.01;100245.13;10462171;28;20139;-59
2023/08/11 12:53:21;;;;;;;1.17;0.85;;;;;;;29.39;33.08;100238.59;10462930;28;20072;-59
2023/08/11 12:58:23;;;;;;;1.25;0.88;;;;;;;29.74;32.72;100240.03;10477589;28;20048;-59
2023/08/11 13:03:25;;;;;;;2.05;1.10;;;;;;;29.84;32.82;100232.38;10458898;28;20137;-59
2023/08/11 13:08:27;;;;;;;1.05;0.75;;;;;;;29.96;32.22;100229.91;10459566;28;20139;-59
2023/08/11 13:13:29;;;;;;;1.35;0.93;;;;;;;30.03;32.59;100240.69;10480742;28;20525;-59
2023/08/11 13:18:31;;;;;;;1.33;0.90;;;;;;;29.98;32.45;100230.50;10459912;28;20051;-59
2023/08/11 13:23:33;;;;;;;1.10;1.00;;;;;;;30.18;32.47;100228.59;10480076;28;20072;-59
2023/08/11 13:28:35;;;;;;;1.60;0.93;;;;;;;30.05;31.99;100228.63;10445078;28;20148;-59
2023/08/11 13:33:37;;;;;;;1.85;0.93;;;;;;;30.04;32.37;100226.97;10479422;28;20072;-59
2023/08/11 13:38:39;;;;;;;1.92;1.35;;;;;;;30.00;32.40;100224.91;10461724;28;20068;-59
2023/08/11 13:43:41;;;;;;;1.80;1.10;;;;;;;30.12;32.17;100218.66;10479238;28;20110;-59
2023/08/11 13:48:43;;;;;;;5.75;1.48;;;;;;;30.09;32.43;100210.16;10478822;28;20449;-59
2023/08/11 13:53:45;;;;;;;1.73;1.00;;;;;;;30.13;32.26;100201.41;10459482;28;20110;-59
2023/08/11 13:58:47;;;;;;;1.10;0.98;;;;;;;30.14;32.02;100183.38;10494176;28;20615;-60
2023/08/11 14:03:49;;;;;;;1.70;0.90;;;;;;;30.28;31.95;100195.78;10477949;28;20052;-58
2023/08/11 14:08:51;;;;;;;1.23;1.00;;;;;;;30.27;31.85;100197.66;10478009;28;20132;-59
2023/08/11 14:13:53;;;;;;;1.88;1.02;;;;;;;30.35;32.17;100194.72;10477216;28;20135;-59
2023/08/11 14:18:55;;;;;;;1.38;0.90;;;;;;;30.38;32.28;100186.19;10478287;28;20062;-58
2023/08/11 14:23:57;;;;;;;1.33;1.02;;;;;;;30.55;32.07;100189.28;10477363;28;20056;-60
2023/08/11 14:29:05;;;;;;;0.77;0.77;;;;;;;30.55;31.65;100183.88;10477310;28;20105;-58
2023/08/11 14:34:07;;;;;;;1.23;0.98;;;;;;;30.30;32.53;100191.81;10459419;28;20044;-59
2023/08/11 14:39:09;;;;;;;1.30;0.90;;;;;;;30.13;32.51;100185.22;10476538;28;20043;-59
2023/08/11 14:44:11;;;;;;;1.65;1.02;;;;;;;30.02;32.47;100187.75;10476654;28;20052;-59
2023/08/11 14:49:14;;;;;;;1.30;0.90;;;;;;;30.30;32.15;100180.19;10457810;28;20040;-60
2023/08/11 14:54:16;;;;;;;1.35;0.82;;;;;;;30.53;32.47;100177.88;10490491;28;20461;-59
2023/08/11 14:59:18;;;;;;;5.28;1.08;;;;;;;30.63;32.51;100179.06;10476697;28;20082;-59
2023/08/11 15:04:20;;;;;;;2.17;1.02;;;;;;;30.35;32.56;100172.31;10475900;28;20052;-59
2023/08/11 15:09:23;;;;;;;1.83;0.95;;;;;;;30.39;32.68;100170.84;10457664;28;20094;-59
2023/08/11 15:14:24;;;;;;;2.72;1.00;;;;;;;30.55;33.21;100164.97;10476533;28;20140;-59
2023/08/11 15:19:29;;;;;;;1.58;0.90;;;;;;;30.54;32.97;100161.44;10476038;28;20045;-60
2023/08/11 15:24:31;;;;;;;1.63;1.05;;;;;;;30.66;32.85;100159.72;10490322;28;20117;-59
2023/08/11 15:29:33;;;;;;;1.75;1.00;;;;;;;30.81;32.46;100158.59;10457503;28;20097;-60
2023/08/11 15:34:37;;;;;;;1.42;0.80;;;;;;;30.94;32.76;100153.97;10457519;28;20036;-59
2023/08/11 15:39:40;;;;;;;2.15;0.90;;;;;;;30.90;32.83;100155.44;10475223;28;20132;-58
2023/08/11 15:44:42;;;;;;;2.70;1.15;;;;;;;31.34;32.46;100155.34;10475499;28;20033;-58
2023/08/11 15:49:44;;;;;;;1.50;1.00;;;;;;;31.37;32.30;100152.19;10474925;28;20040;-58
2023/08/11 15:54:46;;;;;;;1.58;1.00;;;;;;;31.43;32.06;100142.38;10473059;28;20142;-58
2023/08/11 15:59:48;;;;;;;2.05;1.17;;;;;;;31.28;31.93;100139.16;10475094;28;20052;-58
2023/08/11 16:04:51;;;;;;;5.65;1.13;;;;;;;31.09;32.45;100134.78;10474921;28;20135;-58
2023/08/11 16:09:53;;;;;;;1.63;1.30;;;;;;;31.04;32.57;100119.22;10474671;28;20519;-59
2023/08/11 16:14:55;;;;;;;3.67;0.88;;;;;;;30.92;32.42;100117.41;10474680;28;20573;-59
2023/08/11 16:19:57;;;;;;;1.65;1.02;;;;;;;30.75;32.33;100102.75;10482533;28;20040;-59
2023/08/11 16:25:01;;;;;;;2.65;1.08;;;;;;;30.48;32.50;100105.63;10463759;28;20061;-59
2023/08/11 16:30:04;;;;;;;1.73;1.10;;;;;;;30.26;33.59;100103.41;10463476;28;20040;-59
2023/08/11 16:35:07;;;;;;;0.90;0.85;;;;;;;30.00;33.39;100107.06;10481785;28;20045;-60
2023/08/11 16:40:10;;;;;;;1.92;1.10;;;;;;;29.77;33.79;100109.38;10481378;28;20451;-60
2023/08/11 16:45:12;;;;;;;2.00;1.02;;;;;;;29.63;34.59;100110.44;10479572;28;20075;-60
2023/08/11 16:50:15;;;;;;;1.90;1.02;;;;;;;29.41;34.60;100107.16;10480837;28;20583;-60
2023/08/11 16:55:17;;;;;;;1.88;1.00;;;;;;;29.32;34.27;100112.94;10496503;28;20365;-60
2023/08/11 17:00:19;;;;;;;1.27;0.90;;;;;;;29.21;34.63;100100.94;10481571;28;20139;-60
2023/08/11 17:05:22;;;;;;;2.13;1.17;;;;;;;29.02;34.71;100107.97;10480745;28;20059;-60
2023/08/11 17:10:24;;;;;;;1.45;1.00;;;;;;;29.08;34.76;100115.22;10480681;28;20106;-60
2023/08/11 17:15:26;;;;;;;1.58;1.00;;;;;;;29.03;35.04;100109.63;10480519;28;20331;-60
2023/08/11 17:20:29;;;;;;;2.25;1.20;;;;;;;29.12;35.41;100102.16;10480276;28;20463;-60
2023/08/11 17:25:31;;;;;;;1.75;1.02;;;;;;;29.11;35.38;100103.22;10480007;28;20049;-60
2023/08/11 17:30:33;;;;;;;3.63;1.50;;;;;;;28.82;35.69;100107.09;10461422;28;20041;-60
2023/08/11 17:35:35;;;;;;;2.15;1.10;;;;;;;28.42;36.43;100102.66;10479473;28;20416;-60
2023/08/11 17:40:39;;;;;;;2.45;1.20;;;;;;;28.09;37.01;100099.00;10478741;28;20053;-60
2023/08/11 17:45:41;;;;;;;2.28;1.30;;;;;;;27.77;37.45;100108.53;10479352;28;20085;-60
2023/08/11 17:50:43;;;;;;;2.75;1.20;;;;;;;27.44;38.09;100104.78;10479007;28;20052;-60
2023/08/11 17:55:46;;;;;;;2.50;1.17;;;;;;;27.28;38.83;100108.59;10478771;28;20051;-61
2023/08/11 18:00:48;;;;;;;2.08;1.17;;;;;;;27.15;38.76;100110.34;10478606;28;20056;-60
2023/08/11 18:05:50;;;;;;;1.73;1.00;;;;;;;27.00;39.34;100115.75;10460294;28;20497;-60
2023/08/11 18:10:52;;;;;;;5.30;1.27;;;;;;;26.80;40.19;100120.09;10477724;28;20048;-60
2023/08/11 18:15:55;;;;;;;1.95;1.10;;;;;;;26.55;40.23;100125.00;10478121;28;20572;-60
2023/08/11 18:20:57;;;;;;;2.40;1.30;;;;;;;26.44;40.57;100130.84;10477128;28;20516;-60
2023/08/11 18:26:03;;;;;;;3.42;1.33;;;;;;;26.30;40.97;100126.31;10443447;28;20505;-60
2023/08/11 18:31:05;;;;;;;1.90;1.20;;;;;;;26.14;41.60;100129.22;10477407;28;20043;-60
2023/08/11 18:36:07;;;;;;;3.63;1.33;;;;;;;25.83;42.45;100124.03;10477097;28;20094;-60
2023/08/11 18:41:09;;;;;;;3.50;1.58;;;;;;;25.61;43.06;100130.28;10476813;28;20047;-58
2023/08/11 18:46:11;;;;;;;2.30;1.30;;;;;;;25.36;43.76;100131.56;10476573;28;20120;-59
2023/08/11 18:51:13;;;;;;;2.25;1.33;;;;;;;25.18;44.63;100133.72;10476439;28;20040;-59
2023/08/11 18:56:15;;;;;;;2.25;1.38;;;;;;;24.90;45.17;100137.94;10476889;28;20072;-59
2023/08/11 19:01:17;;;;;;;2.50;1.40;;;;;;;24.66;45.95;100138.06;10476562;28;20478;-59
2023/08/11 19:06:19;;;;;;;5.65;1.50;;;;;;;24.53;46.53;100148.53;10476068;28;20500;-59
2023/08/11 19:11:23;;;;;;;1.85;1.30;;;;;;;24.36;46.99;100155.78;10475801;28;20340;-59
2023/08/11 19:16:25;;;;;;;7.90;2.03;;;;;;;23.99;48.11;100159.09;10476367;28;20400;-59
2023/08/11 19:21:28;;;;;;;3.33;1.67;;;;;;;23.82;48.49;100159.31;10475624;28;20067;-60
2023/08/11 19:26:30;;;;;;;2.85;1.45;;;;;;;23.63;49.02;100159.69;10457217;28;20070;-59
2023/08/11 19:31:32;;;;;;;4.07;1.58;;;;;;;23.52;49.27;100163.53;10472585;28;20048;-59
2023/08/11 19:36:35;;;;;;;2.95;1.30;;;;;;;23.45;49.72;100160.69;10451028;28;20161;-58
2023/08/11 19:41:39;;;;;;;3.03;1.50;;;;;;;23.39;50.04;100158.66;10473427;28;20055;-59
2023/08/11 19:46:42;;;;;;;2.92;1.45;;;;;;;23.18;50.52;100149.50;10470899;28;20105;-59
2023/08/11 19:51:44;;;;;;;2.47;1.35;;;;;;;23.08;51.00;100149.69;10478011;28;20135;-59
2023/08/11 19:56:46;;;;;;;2.33;1.48;;;;;;;22.92;51.75;100149.69;10483746;28;20409;-59
2023/08/11 20:01:49;;;;;;;2.63;1.40;;;;;;;22.78;51.90;100152.16;10483127;28;20142;-60
2023/08/11 20:06:51;;;;;;;2.85;1.35;;;;;;;22.55;52.43;100151.91;10480871;28;20060;-60
2023/08/11 20:11:55;;;;;;;2.90;1.50;;;;;;;22.44;52.88;100142.38;10497776;28;20045;-60
2023/08/11 20:16:58;;;;;;;3.53;1.30;;;;;;;22.35;53.06;100137.19;10482987;28;20075;-59
2023/08/11 20:22:00;;;;;;;2.55;1.75;;;;;;;22.35;53.16;100138.00;10464902;28;20056;-59
2023/08/11 20:27:02;;;;;;;16.73;2.13;;;;;;;22.31;53.21;100143.84;10497286;28;20098;-60
2023/08/11 20:32:04;;;;;;;8.00;2.10;;;;;;;22.17;53.49;100134.59;10463317;28;20059;-59
2023/08/11 20:37:06;;;;;;;3.17;1.75;;;;;;;21.97;54.21;100135.81;10482097;28;20027;-59
2023/08/11 20:42:09;;;;;;;2.58;1.40;;;;;;;21.80;54.54;100134.09;10481794;28;20606;-59
2023/08/11 20:47:11;;;;;;;3.20;1.50;;;;;;;21.67;55.02;100129.19;10481615;28;20044;-59
2023/08/11 20:52:13;;;;;;;2.30;1.50;;;;;;;21.62;55.29;100122.69;10481209;28;20122;-59
2023/08/11 20:57:15;;;;;;;3.65;1.55;;;;;;;21.61;55.13;100123.66;10481520;28;20567;-59
2023/08/11 21:02:17;;;;;;;3.58;1.77;;;;;;;21.57;55.30;100127.63;10479894;28;20048;-59
2023/08/11 21:07:19;;;;;;;2.50;1.63;;;;;;;21.44;55.63;100135.16;10480791;28;20134;-59
2023/08/11 21:12:21;;;;;;;3.42;1.63;;;;;;;21.28;56.04;100133.22;10480749;28;20102;-59
2023/08/11 21:17:23;;;;;;;3.60;1.70;;;;;;;21.15;56.20;100134.59;10480321;28;20550;-59
2023/08/11 21:22:25;;;;;;;2.03;1.60;;;;;;;21.03;56.44;100137.50;10461711;28;20098;-59
2023/08/11 21:27:27;;;;;;;3.97;1.65;;;;;;;20.98;56.68;100138.94;10462152;28;20091;-60
2023/08/11 21:32:29;;;;;;;3.03;1.70;;;;;;;21.00;56.70;100143.13;10479808;28;20041;-59
2023/08/11 21:37:32;;;;;;;4.55;1.80;;;;;;;20.83;57.45;100135.97;10479753;28;20044;-59
2023/08/11 21:42:34;;;;;;;2.63;1.75;;;;;;;20.63;57.84;100126.50;10479043;28;20048;-59
2023/08/11 21:47:36;;;;;;;7.30;1.65;;;;;;;20.66;57.80;100138.66;10460894;28;20143;-59
2023/08/11 21:52:38;;;;;;;3.40;1.60;;;;;;;20.63;57.74;100144.25;10459945;28;20184;-59
2023/08/11 21:57:40;;;;;;;5.32;1.70;;;;;;;20.47;57.87;100139.56;10478695;28;20072;-59
2023/08/11 22:02:42;;;;;;;2.92;1.50;;;;;;;20.36;58.20;100128.34;10478502;28;20122;-59
2023/08/11 22:07:44;;;;;;;3.10;1.50;;;;;;;20.37;58.38;100133.50;10478671;28;20411;-59
2023/08/11 22:12:46;;;;;;;3.20;2.00;;;;;;;20.31;58.56;100135.91;10476976;28;20048;-60
2023/08/11 22:17:48;;;;;;;8.95;2.00;;;;;;;20.05;58.97;100125.94;10478023;28;20231;-59
2023/08/11 22:22:51;;;;;;;8.60;2.42;;;;;;;20.06;59.07;100125.00;10477655;28;20040;-59
2023/08/11 22:27:53;;;;;;;3.78;1.63;;;;;;;20.05;59.02;100115.34;10477390;28;20485;-59
2023/08/11 22:32:55;;;;;;;8.60;1.77;;;;;;;20.12;59.06;100124.41;10477301;28;20460;-59
2023/08/11 22:37:57;;;;;;;4.80;1.65;;;;;;;20.16;58.95;100128.44;10477250;28;20044;-59
2023/08/11 22:42:59;;;;;;;4.30;1.67;;;;;;;20.24;59.02;100128.53;10477343;28;20086;-59
2023/08/11 22:48:01;;;;;;;3.75;1.90;;;;;;;20.19;59.18;100127.31;10492309;28;20126;-59
2023/08/11 22:53:04;;;;;;;4.20;1.55;;;;;;;20.09;59.22;100115.91;10476337;28;20048;-59
2023/08/11 22:58:06;;;;;;;3.78;1.80;;;;;;;20.03;59.25;100113.84;10458402;28;20102;-59
2023/08/11 23:03:08;;;;;;;7.82;1.77;;;;;;;19.75;59.68;100125.34;10457976;28;20125;-59
2023/08/11 23:08:10;;;;;;;3.63;1.60;;;;;;;19.90;59.75;100121.28;10475859;28;20138;-59